createdAt,value
2022-08-09T00:00:06.286Z,22.83
2022-08-09T00:02:15.015Z,22.77
2022-08-09T00:04:34.171Z,22.74
2022-08-09T00:06:37.940Z,22.76
2022-08-09T00:08:40.764Z,22.77
2022-08-09T00:10:44.094Z,22.73
2022-08-09T00:12:52.443Z,22.72
2022-08-09T00:14:56.934Z,22.13
2022-08-09T00:16:59.859Z,22.85
2022-08-09T00:19:02.881Z,20.99
2022-08-09T00:21:12.325Z,21.73
2022-08-09T00:23:55.258Z,22.31
2022-08-09T00:25:39.108Z,22.37
2022-08-09T00:27:48.325Z,22.43
2022-08-09T00:30:16.809Z,22.57
2022-08-09T00:32:14.183Z,22.35
2022-08-09T00:34:28.632Z,22.70
2022-08-09T00:36:36.741Z,22.67
2022-08-09T00:38:40.469Z,22.59
2022-08-09T00:40:52.392Z,22.59
2022-08-09T00:44:10.391Z,22.09
2022-08-09T00:45:20.256Z,22.26
2022-08-09T00:47:24.968Z,22.44
2022-08-09T00:49:28.225Z,22.41
2022-08-09T00:51:34.003Z,21.86
2022-08-09T00:53:46.916Z,22.50
2022-08-09T00:56:05.570Z,22.51
2022-08-09T00:58:14.686Z,22.57
2022-08-09T01:00:25.084Z,22.53
2022-08-09T01:02:31.140Z,22.42
2022-08-09T01:04:39.329Z,22.36
2022-08-09T01:06:58.609Z,22.26
2022-08-09T01:09:09.655Z,22.27
2022-08-09T01:11:24.797Z,21.30
2022-08-09T01:13:59.585Z,22.19
2022-08-09T01:16:05.321Z,21.78
2022-08-09T01:18:14.260Z,21.43
2022-08-09T01:20:24.955Z,21.49
2022-08-09T01:23:04.723Z,21.46
2022-08-09T01:25:24.975Z,21.65
2022-08-09T01:27:31.241Z,21.74
2022-08-09T01:29:55.164Z,21.77
2022-08-09T01:32:31.214Z,21.77
2022-08-09T01:34:27.138Z,21.65
2022-08-09T01:36:33.110Z,21.70
2022-08-09T01:38:46.401Z,21.82
2022-08-09T01:40:53.053Z,21.87
2022-08-09T01:43:11.090Z,21.35
2022-08-09T01:45:14.578Z,21.57
2022-08-09T01:47:18.180Z,21.44
2022-08-09T01:49:24.235Z,21.57
2022-08-09T01:51:32.251Z,21.73
2022-08-09T01:53:41.664Z,21.64
2022-08-09T01:55:46.648Z,21.50
2022-08-09T01:57:53.130Z,21.36
2022-08-09T02:00:09.075Z,21.47
2022-08-09T02:02:29.900Z,21.70
2022-08-09T02:04:35.049Z,21.40
2022-08-09T02:07:03.276Z,21.64
2022-08-09T02:09:10.305Z,21.30
2022-08-09T02:11:17.157Z,21.61
2022-08-09T02:13:26.294Z,21.65
2022-08-09T02:15:50.596Z,21.53
2022-08-09T02:18:01.704Z,21.39
2022-08-09T02:20:15.914Z,21.19
2022-08-09T02:22:36.692Z,20.49
2022-08-09T02:24:44.460Z,20.95
2022-08-09T02:26:58.911Z,20.93
2022-08-09T02:29:07.745Z,20.98
2022-08-09T02:31:17.938Z,17.61
2022-08-09T02:33:38.083Z,20.78
2022-08-09T02:36:03.804Z,20.73
2022-08-09T02:38:11.796Z,19.68
2022-08-09T02:40:31.264Z,20.56
2022-08-09T02:42:37.550Z,20.34
2022-08-09T02:44:45.671Z,19.76
2022-08-09T02:46:55.312Z,19.50
2022-08-09T02:49:05.066Z,19.88
2022-08-09T02:51:12.780Z,19.45
2022-08-09T02:53:26.522Z,19.97
2022-08-09T02:55:46.588Z,20.06
2022-08-09T02:58:00.299Z,19.78
2022-08-09T03:00:20.888Z,19.73
2022-08-09T03:02:31.569Z,18.79
2022-08-09T03:04:36.379Z,19.82
2022-08-09T03:06:41.582Z,18.04
2022-08-09T03:08:50.115Z,20.26
2022-08-09T03:10:58.515Z,20.43
2022-08-09T03:13:03.741Z,19.04
2022-08-09T03:15:13.288Z,20.65
2022-08-09T03:17:20.592Z,20.57
2022-08-09T03:19:58.336Z,20.47
2022-08-09T03:21:58.193Z,20.56
2022-08-09T03:24:04.799Z,20.67
2022-08-09T03:26:08.524Z,20.80
2022-08-09T03:28:12.542Z,20.85
2022-08-09T03:30:30.144Z,20.75
2022-08-09T03:32:38.483Z,20.76
2022-08-09T03:34:42.701Z,20.28
2022-08-09T03:36:59.366Z,19.45
2022-08-09T03:39:05.527Z,19.55
2022-08-09T03:41:08.971Z,19.59
2022-08-09T03:43:12.193Z,19.80
2022-08-09T03:45:16.415Z,19.63
2022-08-09T03:47:40.247Z,19.16
2022-08-09T03:49:58.291Z,18.72
2022-08-09T03:52:03.654Z,18.37
2022-08-09T03:54:10.688Z,17.92
2022-08-09T03:56:14.250Z,18.19
2022-08-09T03:58:21.022Z,18.50
2022-08-09T04:00:24.577Z,18.73
2022-08-09T04:02:32.500Z,18.90
2022-08-09T04:04:38.979Z,18.92
2022-08-09T04:06:44.097Z,19.09
2022-08-09T04:08:53.599Z,18.94
2022-08-09T04:10:56.558Z,19.35
2022-08-09T04:13:11.614Z,19.77
2022-08-09T04:15:29.416Z,19.66
2022-08-09T04:17:39.513Z,19.63
2022-08-09T04:19:51.587Z,19.23
2022-08-09T04:22:00.610Z,19.23
2022-08-09T04:24:03.972Z,19.61
2022-08-09T04:26:06.831Z,19.99
2022-08-09T04:28:09.623Z,19.93
2022-08-09T04:30:17.896Z,20.35
2022-08-09T04:32:33.797Z,20.71
2022-08-09T04:34:39.893Z,20.93
2022-08-09T04:36:56.938Z,21.04
2022-08-09T04:39:03.104Z,21.25
2022-08-09T04:41:06.544Z,20.98
2022-08-09T04:43:15.160Z,20.27
2022-08-09T04:45:20.542Z,19.72
2022-08-09T04:47:23.616Z,19.14
2022-08-09T04:49:40.726Z,19.03
2022-08-09T04:51:49.728Z,18.75
2022-08-09T04:53:54.307Z,18.66
2022-08-09T04:56:02.873Z,18.52
2022-08-09T04:58:09.427Z,18.35
2022-08-09T05:00:13.837Z,18.38
2022-08-09T05:02:19.504Z,18.28
2022-08-09T05:04:23.250Z,18.25
2022-08-09T05:06:35.739Z,18.08
2022-08-09T05:08:39.127Z,18.25
2022-08-09T05:10:50.739Z,18.23
2022-08-09T05:12:54.857Z,17.06
2022-08-09T05:14:57.588Z,18.20
2022-08-09T05:17:00.345Z,15.46
2022-08-09T05:19:03.213Z,17.88
2022-08-09T05:21:09.720Z,18.07
2022-08-09T05:23:54.336Z,18.04
2022-08-09T05:25:44.634Z,18.07
2022-08-09T05:27:55.416Z,18.13
2022-08-09T05:29:58.943Z,18.13
2022-08-09T05:32:02.013Z,18.15
2022-08-09T05:34:04.782Z,18.18
2022-08-09T05:36:07.794Z,17.83
2022-08-09T05:38:11.286Z,18.27
2022-08-09T05:40:25.803Z,18.34
2022-08-09T05:42:28.758Z,18.37
2022-08-09T05:44:34.621Z,18.41
2022-08-09T05:46:38.442Z,18.42
2022-08-09T05:48:41.998Z,18.52
2022-08-09T05:50:56.945Z,18.54
2022-08-09T05:53:11.645Z,18.62
2022-08-09T05:55:24.761Z,18.67
2022-08-09T05:57:55.987Z,18.71
2022-08-09T05:59:51.650Z,18.75
2022-08-09T06:01:58.863Z,18.84
2022-08-09T06:04:02.494Z,18.91
2022-08-09T06:06:09.119Z,19.00
2022-08-09T06:08:12.514Z,19.08
2022-08-09T06:10:17.962Z,19.17
2022-08-09T06:12:20.956Z,19.27
2022-08-09T06:14:29.247Z,19.38
2022-08-09T06:16:33.364Z,19.46
2022-08-09T06:18:36.519Z,19.08
2022-08-09T06:20:39.510Z,19.57
2022-08-09T06:22:42.288Z,19.64
2022-08-09T06:24:48.939Z,19.73
2022-08-09T06:26:51.750Z,19.76
2022-08-09T06:29:00.230Z,19.95
2022-08-09T06:31:04.274Z,19.83
2022-08-09T06:33:30.280Z,20.02
2022-08-09T06:35:35.707Z,19.68
2022-08-09T06:38:06.771Z,20.21
2022-08-09T06:40:22.013Z,20.39
2022-08-09T06:42:28.519Z,20.10
2022-08-09T06:44:33.723Z,20.57
2022-08-09T06:46:39.675Z,20.30
2022-08-09T06:48:45.387Z,20.44
2022-08-09T06:50:48.163Z,20.62
2022-08-09T06:52:51.656Z,20.78
2022-08-09T06:54:55.811Z,20.59
2022-08-09T06:56:58.939Z,20.07
2022-08-09T07:00:51.344Z,21.21
2022-08-09T07:01:35.594Z,21.20
2022-08-09T07:03:52.387Z,21.37
2022-08-09T07:06:04.163Z,21.14
2022-08-09T07:08:08.065Z,21.55
2022-08-09T07:10:22.314Z,21.70
2022-08-09T07:12:40.641Z,21.77
2022-08-09T07:14:44.164Z,21.82
2022-08-09T07:16:55.432Z,21.86
2022-08-09T07:19:02.029Z,21.96
2022-08-09T07:21:07.981Z,22.03
2022-08-09T07:23:18.796Z,21.84
2022-08-09T07:25:22.383Z,22.27
2022-08-09T07:27:34.017Z,22.34
2022-08-09T07:29:37.961Z,21.94
2022-08-09T07:31:48.058Z,22.49
2022-08-09T07:33:52.586Z,22.52
2022-08-09T07:35:59.892Z,22.02
2022-08-09T07:38:04.118Z,22.84
2022-08-09T07:40:07.672Z,22.95
2022-08-09T07:42:11.380Z,23.00
2022-08-09T07:44:14.346Z,22.99
2022-08-09T07:46:19.481Z,22.57
2022-08-09T07:48:29.680Z,23.13
2022-08-09T07:50:36.903Z,23.18
2022-08-09T07:52:43.071Z,23.23
2022-08-09T07:54:51.532Z,23.27
2022-08-09T07:56:56.095Z,22.08
2022-08-09T07:58:59.596Z,23.31
2022-08-09T08:01:06.639Z,23.49
2022-08-09T08:03:13.861Z,23.52
2022-08-09T08:05:18.536Z,23.55
2022-08-09T08:08:44.478Z,23.53
2022-08-09T08:09:53.365Z,23.66
2022-08-09T08:12:10.141Z,23.72
2022-08-09T08:14:21.073Z,23.97
2022-08-09T08:16:29.632Z,23.95
2022-08-09T08:18:34.886Z,24.07
2022-08-09T08:20:42.838Z,24.27
2022-08-09T08:22:48.523Z,24.43
2022-08-09T08:24:56.026Z,24.38
2022-08-09T08:27:00.355Z,24.37
2022-08-09T08:29:03.141Z,24.68
2022-08-09T08:31:14.272Z,24.87
2022-08-09T08:33:22.825Z,24.88
2022-08-09T08:35:37.059Z,25.04
2022-08-09T08:37:59.706Z,25.21
2022-08-09T08:40:09.951Z,25.27
2022-08-09T08:42:14.145Z,25.26
2022-08-09T08:44:27.515Z,25.37
2022-08-09T08:46:59.814Z,25.63
2022-08-09T08:49:02.258Z,25.87
2022-08-09T08:51:06.055Z,26.04
2022-08-09T08:53:11.966Z,26.02
2022-08-09T08:55:23.358Z,25.86
2022-08-09T08:57:28.446Z,26.12
2022-08-09T08:59:46.880Z,25.92
2022-08-09T09:01:52.886Z,26.26
2022-08-09T09:04:00.929Z,26.52
2022-08-09T09:06:07.182Z,26.77
2022-08-09T09:08:30.048Z,26.87
2022-08-09T09:10:37.071Z,27.05
2022-08-09T09:12:42.202Z,26.31
2022-08-09T09:14:47.547Z,26.94
2022-08-09T09:16:50.581Z,27.13
2022-08-09T09:19:10.776Z,26.41
2022-08-09T09:21:26.100Z,21.76
2022-08-09T09:23:49.625Z,27.29
2022-08-09T09:26:01.063Z,27.36
2022-08-09T09:28:10.947Z,27.51
2022-08-09T09:32:37.789Z,27.44
2022-08-09T09:34:44.617Z,27.58
2022-08-09T09:36:53.051Z,26.88
2022-08-09T09:38:58.151Z,27.45
2022-08-09T09:41:02.785Z,27.66
2022-08-09T09:43:07.278Z,27.96
2022-08-09T09:45:25.554Z,28.08
2022-08-09T09:47:30.446Z,28.27
2022-08-09T09:50:07.075Z,27.16
2022-08-09T09:52:05.562Z,28.47
2022-08-09T09:54:20.725Z,28.46
2022-08-09T09:56:33.666Z,28.30
2022-08-09T09:58:54.546Z,28.62
2022-08-09T10:01:00.084Z,28.78
2022-08-09T10:03:11.808Z,28.76
2022-08-09T10:05:16.860Z,28.68
2022-08-09T10:07:30.233Z,28.43
2022-08-09T10:09:55.486Z,28.85
2022-08-09T10:12:14.335Z,28.90
2022-08-09T10:14:30.335Z,28.89
2022-08-09T10:16:57.076Z,29.00
2022-08-09T10:19:01.475Z,28.95
2022-08-09T10:21:09.344Z,28.68
2022-08-09T10:23:20.214Z,28.80
2022-08-09T10:25:24.372Z,28.97
2022-08-09T10:27:56.309Z,29.20
2022-08-09T10:30:43.878Z,28.25
2022-08-09T10:32:42.274Z,29.11
2022-08-09T10:34:47.152Z,29.13
2022-08-09T10:36:56.645Z,28.87
2022-08-09T10:39:00.542Z,29.21
2022-08-09T10:41:03.593Z,29.24
2022-08-09T10:43:08.246Z,29.62
2022-08-09T10:45:16.764Z,29.99
2022-08-09T10:48:20.215Z,30.30
2022-08-09T10:50:14.886Z,30.27
2022-08-09T10:52:35.589Z,30.24
2022-08-09T10:54:39.337Z,30.24
2022-08-09T10:56:43.811Z,29.98
2022-08-09T10:58:49.348Z,30.12
2022-08-09T11:03:06.398Z,30.38
2022-08-09T11:03:49.871Z,30.83
2022-08-09T11:06:20.900Z,31.03
2022-08-09T11:08:47.081Z,31.14
2022-08-09T11:10:56.553Z,31.02
2022-08-09T11:13:49.336Z,31.23
2022-08-09T11:16:04.353Z,31.28
2022-08-09T11:18:04.178Z,30.97
2022-08-09T11:20:19.881Z,30.31
2022-08-09T11:22:59.400Z,30.91
2022-08-09T11:25:08.989Z,31.50
2022-08-09T11:28:03.002Z,31.44
2022-08-09T11:30:04.405Z,31.69
2022-08-09T11:32:11.400Z,31.51
2022-08-09T11:34:35.210Z,31.78
2022-08-09T11:36:42.943Z,30.99
2022-08-09T11:39:02.387Z,31.41
2022-08-09T11:41:38.549Z,31.46
2022-08-09T11:43:48.758Z,31.50
2022-08-09T11:45:57.573Z,31.27
2022-08-09T11:48:11.125Z,31.97
2022-08-09T11:50:55.163Z,32.60
2022-08-09T11:53:58.514Z,33.01
2022-08-09T11:55:53.295Z,33.05
2022-08-09T11:58:02.270Z,32.87
2022-08-09T12:00:15.795Z,32.99
2022-08-09T12:02:37.456Z,32.57
2022-08-09T12:04:44.229Z,33.18
2022-08-09T12:06:55.831Z,33.22
2022-08-09T12:08:58.956Z,33.12
2022-08-09T12:11:04.064Z,33.30
2022-08-09T12:14:09.855Z,33.36
2022-08-09T12:15:59.354Z,33.48
2022-08-09T12:18:02.237Z,32.66
2022-08-09T12:20:16.757Z,32.77
2022-08-09T12:22:26.183Z,33.31
2022-08-09T12:24:29.033Z,33.02
2022-08-09T12:26:40.504Z,32.83
2022-08-09T12:29:11.490Z,33.81
2022-08-09T12:31:58.838Z,34.13
2022-08-09T12:33:59.028Z,34.29
2022-08-09T12:36:27.503Z,34.26
2022-08-09T12:38:37.862Z,34.24
2022-08-09T12:40:46.485Z,33.61
2022-08-09T12:42:55.642Z,33.73
2022-08-09T12:45:00.143Z,34.24
2022-08-09T12:47:03.406Z,34.59
2022-08-09T12:49:08.647Z,34.80
2022-08-09T12:51:12.810Z,33.51
2022-08-09T12:53:38.618Z,34.49
2022-08-09T12:56:14.859Z,34.84
2022-08-09T12:58:24.054Z,34.08
2022-08-09T13:00:32.497Z,34.00
2022-08-09T13:02:49.370Z,33.75
2022-08-09T13:05:03.871Z,34.56
2022-08-09T13:07:16.396Z,34.64
2022-08-09T13:09:26.239Z,34.39
2022-08-09T13:11:39.397Z,34.27
2022-08-09T13:14:43.006Z,34.37
2022-08-09T13:16:10.603Z,34.96
2022-08-09T13:18:17.414Z,34.97
2022-08-09T13:20:37.622Z,35.07
2022-08-09T13:23:05.706Z,33.69
2022-08-09T13:25:20.001Z,34.08
2022-08-09T13:27:29.658Z,34.71
2022-08-09T13:30:04.013Z,35.21
2022-08-09T13:32:25.309Z,35.12
2022-08-09T13:34:33.465Z,35.47
2022-08-09T13:36:42.963Z,35.77
2022-08-09T13:38:55.001Z,35.83
2022-08-09T13:41:54.534Z,35.38
2022-08-09T13:43:35.609Z,35.66
2022-08-09T13:46:44.457Z,35.66
2022-08-09T13:48:04.892Z,35.60
2022-08-09T13:50:18.103Z,35.64
2022-08-09T13:52:33.868Z,35.73
2022-08-09T13:54:42.924Z,35.50
2022-08-09T13:57:02.206Z,35.81
2022-08-09T13:59:09.449Z,36.07
2022-08-09T14:02:01.166Z,35.68
2022-08-09T14:04:02.403Z,35.69
2022-08-09T14:06:02.665Z,36.11
2022-08-09T14:08:06.942Z,36.04
2022-08-09T14:10:37.648Z,35.95
2022-08-09T14:12:40.451Z,36.15
2022-08-09T14:14:44.137Z,35.93
2022-08-09T14:16:56.595Z,35.16
2022-08-09T14:19:01.587Z,35.36
2022-08-09T14:21:05.884Z,35.37
2022-08-09T14:23:08.805Z,35.77
2022-08-09T14:25:24.568Z,35.68
2022-08-09T14:27:57.127Z,35.39
2022-08-09T14:30:35.929Z,35.71
2022-08-09T14:32:28.632Z,35.99
2022-08-09T14:34:33.870Z,36.29
2022-08-09T14:36:42.728Z,35.62
2022-08-09T14:38:45.981Z,36.58
2022-08-09T14:41:01.878Z,35.78
2022-08-09T14:43:18.679Z,36.47
2022-08-09T14:47:00.986Z,36.62
2022-08-09T14:47:57.292Z,36.90
2022-08-09T14:50:02.673Z,37.01
2022-08-09T14:52:06.126Z,37.11
2022-08-09T14:54:10.257Z,36.91
2022-08-09T14:56:14.384Z,36.93
2022-08-09T14:58:18.269Z,36.82
2022-08-09T15:00:22.169Z,35.93
2022-08-09T15:02:24.962Z,35.99
2022-08-09T15:04:27.895Z,35.92
2022-08-09T15:06:31.983Z,36.48
2022-08-09T15:08:34.867Z,36.22
2022-08-09T15:10:38.858Z,36.91
2022-08-09T15:12:44.926Z,37.07
2022-08-09T15:14:48.056Z,36.95
2022-08-09T15:16:53.085Z,36.91
2022-08-09T15:18:56.110Z,37.05
2022-08-09T15:21:55.664Z,36.71
2022-08-09T15:24:01.170Z,36.60
2022-08-09T15:25:48.170Z,36.70
2022-08-09T15:28:00.292Z,37.17
2022-08-09T15:30:48.901Z,37.66
2022-08-09T15:32:30.125Z,37.33
2022-08-09T15:34:35.354Z,37.08
2022-08-09T15:36:38.532Z,37.45
2022-08-09T15:38:50.871Z,37.25
2022-08-09T15:40:53.629Z,36.71
2022-08-09T15:42:58.925Z,37.22
2022-08-09T15:45:03.638Z,37.62
2022-08-09T15:47:07.566Z,38.00
2022-08-09T15:49:22.948Z,38.17
2022-08-09T15:51:44.409Z,37.53
2022-08-09T15:54:04.581Z,37.61
2022-08-09T15:56:23.412Z,37.71
2022-08-09T15:58:33.696Z,37.83
2022-08-09T16:00:37.489Z,37.70
2022-08-09T16:02:41.839Z,37.90
2022-08-09T16:04:45.082Z,38.70
2022-08-09T16:06:52.508Z,39.01
2022-08-09T16:09:00.943Z,38.84
2022-08-09T16:11:05.016Z,38.67
2022-08-09T16:13:18.566Z,38.73
2022-08-09T16:16:10.077Z,39.28
2022-08-09T16:17:51.022Z,37.21
2022-08-09T16:20:04.226Z,37.34
2022-08-09T16:22:15.726Z,37.44
2022-08-09T16:24:29.860Z,38.26
2022-08-09T16:26:37.364Z,38.61
2022-08-09T16:28:40.162Z,39.32
2022-08-09T16:30:54.124Z,39.14
2022-08-09T16:33:11.295Z,38.44
2022-08-09T16:35:53.235Z,38.91
2022-08-09T16:37:55.155Z,38.69
2022-08-09T16:40:04.595Z,38.65
2022-08-09T16:42:08.038Z,38.51
2022-08-09T16:44:12.645Z,38.26
2022-08-09T16:46:21.279Z,39.02
2022-08-09T16:48:40.670Z,38.55
2022-08-09T16:50:59.131Z,38.82
2022-08-09T16:53:11.904Z,39.71
2022-08-09T16:55:15.562Z,39.28
2022-08-09T16:57:19.350Z,39.92
2022-08-09T16:59:23.518Z,39.88
2022-08-09T17:01:27.907Z,40.07
2022-08-09T17:03:36.630Z,39.73
2022-08-09T17:06:03.422Z,38.71
2022-08-09T17:08:42.838Z,37.58
2022-08-09T17:10:25.021Z,38.72
2022-08-09T17:12:27.833Z,38.96
2022-08-09T17:14:32.984Z,39.53
2022-08-09T17:16:39.417Z,39.96
2022-08-09T17:18:45.263Z,39.88
2022-08-09T17:20:52.498Z,39.47
2022-08-09T17:22:55.912Z,39.16
2022-08-09T17:25:03.741Z,38.55
2022-08-09T17:27:15.078Z,38.70
2022-08-09T17:29:20.311Z,38.11
2022-08-09T17:31:23.709Z,38.17
2022-08-09T17:33:37.601Z,38.40
2022-08-09T17:35:40.813Z,38.45
2022-08-09T17:38:02.332Z,36.77
2022-08-09T17:40:18.103Z,36.91
2022-08-09T17:42:41.089Z,37.82
2022-08-09T17:44:49.314Z,37.49
2022-08-09T17:46:55.734Z,37.69
2022-08-09T17:49:02.128Z,37.72
2022-08-09T17:51:19.500Z,37.50
2022-08-09T17:53:22.742Z,37.47
2022-08-09T17:55:47.155Z,36.61
2022-08-09T17:58:05.475Z,35.52
2022-08-09T18:00:12.498Z,36.75
2022-08-09T18:02:21.499Z,36.49
2022-08-09T18:04:30.380Z,35.95
2022-08-09T18:06:33.400Z,35.22
2022-08-09T18:08:37.968Z,34.96
2022-08-09T18:10:42.566Z,33.63
2022-08-09T18:13:40.905Z,33.24
2022-08-09T18:15:13.335Z,32.23
2022-08-09T18:17:18.556Z,32.06
2022-08-09T18:20:56.591Z,31.62
2022-08-09T18:21:53.669Z,31.25
2022-08-09T18:24:09.854Z,30.97
2022-08-09T18:26:15.736Z,29.85
2022-08-09T18:30:34.791Z,30.33
2022-08-09T18:30:49.082Z,30.16
2022-08-09T18:32:54.566Z,30.03
2022-08-09T18:34:59.119Z,28.66
2022-08-09T18:37:02.515Z,28.85
2022-08-09T18:39:07.212Z,29.25
2022-08-09T18:41:19.143Z,28.70
2022-08-09T18:43:35.161Z,28.39
2022-08-09T18:46:47.765Z,27.87
2022-08-09T18:48:02.231Z,27.85
2022-08-09T18:50:10.029Z,28.15
2022-08-09T18:52:18.755Z,27.77
2022-08-09T18:54:28.534Z,27.82
2022-08-09T18:56:32.447Z,27.46
2022-08-09T18:58:35.644Z,26.78
2022-08-09T19:00:41.998Z,27.47
2022-08-09T19:02:45.665Z,27.04
2022-08-09T19:05:14.095Z,27.08
2022-08-09T19:07:13.040Z,27.03
2022-08-09T19:09:34.061Z,26.68
2022-08-09T19:11:44.503Z,26.70
2022-08-09T19:13:51.441Z,26.94
2022-08-09T19:15:55.518Z,26.78
2022-08-09T19:18:00.310Z,26.62
2022-08-09T19:20:03.928Z,26.45
2022-08-09T19:22:07.451Z,26.11
2022-08-09T19:24:32.452Z,25.88
2022-08-09T19:26:35.680Z,25.15
2022-08-09T19:28:39.913Z,25.32
2022-08-09T19:30:45.460Z,25.20
2022-08-09T19:32:53.024Z,25.12
2022-08-09T19:34:57.381Z,24.89
2022-08-09T19:37:00.199Z,24.90
2022-08-09T19:39:05.404Z,24.36
2022-08-09T19:41:10.172Z,24.64
2022-08-09T19:43:16.371Z,24.33
2022-08-09T19:45:39.152Z,24.15
2022-08-09T19:47:44.407Z,24.28
2022-08-09T19:50:09.968Z,24.69
2022-08-09T19:52:12.106Z,23.69
2022-08-09T19:54:15.139Z,24.85
2022-08-09T19:56:29.104Z,24.97
2022-08-09T19:58:32.428Z,24.79
2022-08-09T20:00:35.452Z,24.81
2022-08-09T20:04:23.943Z,24.47
2022-08-09T20:05:09.761Z,24.31
2022-08-09T20:07:15.996Z,24.39
2022-08-09T20:09:44.276Z,24.48
2022-08-09T20:11:51.962Z,24.22
2022-08-09T20:13:57.086Z,24.01
2022-08-09T20:16:34.502Z,24.38
2022-08-09T20:18:28.184Z,24.69
2022-08-09T20:20:31.181Z,23.58
2022-08-09T20:22:35.760Z,24.90
2022-08-09T20:24:40.848Z,25.03
2022-08-09T20:26:43.780Z,25.17
2022-08-09T20:28:49.904Z,24.96
2022-08-09T20:30:52.817Z,25.14
2022-08-09T20:32:57.892Z,25.18
2022-08-09T20:35:01.757Z,25.19
2022-08-09T20:37:05.143Z,24.97
2022-08-09T20:39:28.203Z,25.05
2022-08-09T20:41:35.170Z,24.83
2022-08-09T20:43:44.847Z,25.09
2022-08-09T20:45:57.827Z,25.10
2022-08-09T20:48:05.815Z,24.99
2022-08-09T20:50:15.617Z,24.93
2022-08-09T20:52:36.770Z,24.92
2022-08-09T20:54:40.446Z,24.97
2022-08-09T20:56:55.471Z,24.74
2022-08-09T20:58:59.123Z,24.61
2022-08-09T21:01:33.383Z,24.66
2022-08-09T21:03:28.783Z,24.83
2022-08-09T21:05:54.870Z,23.74
2022-08-09T21:08:01.641Z,24.32
2022-08-09T21:10:05.365Z,24.21
2022-08-09T21:14:16.682Z,24.12
2022-08-09T21:16:21.710Z,23.84
2022-08-09T21:18:33.433Z,24.33
2022-08-09T21:20:56.452Z,24.26
2022-08-09T21:23:00.279Z,24.28
2022-08-09T21:25:21.177Z,24.40
2022-08-09T21:27:51.647Z,24.41
2022-08-09T21:29:53.455Z,23.89
2022-08-09T21:31:57.798Z,24.15
2022-08-09T21:34:00.593Z,24.26
2022-08-09T21:36:10.230Z,23.74
2022-08-09T21:38:14.939Z,24.16
2022-08-09T21:40:19.523Z,24.36
2022-08-09T21:42:33.068Z,24.00
2022-08-09T21:44:37.254Z,24.35
2022-08-09T21:46:42.198Z,24.01
2022-08-09T21:48:49.253Z,24.17
2022-08-09T21:50:52.539Z,24.24
2022-08-09T21:52:56.182Z,24.28
2022-08-09T21:55:04.327Z,23.89
2022-08-09T21:57:07.748Z,23.42
2022-08-09T21:59:42.508Z,23.54
2022-08-09T22:02:00.847Z,23.14
2022-08-09T22:04:05.888Z,23.18
2022-08-09T22:06:09.097Z,22.69
2022-08-09T22:08:15.188Z,22.69
2022-08-09T22:10:22.075Z,22.51
2022-08-09T22:12:31.241Z,22.20
2022-08-09T22:14:34.753Z,22.54
2022-08-09T22:16:39.022Z,22.53
2022-08-09T22:18:53.262Z,22.59
2022-08-09T22:20:59.245Z,22.93
2022-08-09T22:23:04.947Z,21.95
2022-08-09T22:26:07.453Z,23.24
2022-08-09T22:27:36.389Z,22.86
2022-08-09T22:29:49.213Z,20.34
2022-08-09T22:31:56.666Z,23.28
2022-08-09T22:34:00.398Z,23.15
2022-08-09T22:36:05.021Z,23.14
2022-08-09T22:38:11.851Z,23.25
2022-08-09T22:40:18.209Z,23.04
2022-08-09T22:42:23.466Z,22.01
2022-08-09T22:44:32.695Z,23.27
2022-08-09T22:48:10.307Z,23.19
2022-08-09T22:49:01.750Z,22.77
2022-08-09T22:51:10.563Z,22.11
2022-08-09T22:53:13.821Z,23.37
2022-08-09T22:55:22.573Z,23.25
2022-08-09T22:57:31.605Z,23.44
2022-08-09T22:59:56.884Z,23.66
2022-08-09T23:02:01.356Z,23.55
2022-08-09T23:04:07.087Z,23.65
2022-08-09T23:06:14.051Z,23.33
2022-08-09T23:08:35.560Z,23.59
2022-08-09T23:10:43.561Z,23.31
2022-08-09T23:12:46.650Z,23.58
2022-08-09T23:14:49.431Z,23.64
2022-08-09T23:16:56.913Z,23.51
2022-08-09T23:18:59.791Z,23.30
2022-08-09T23:21:02.503Z,23.42
2022-08-09T23:23:07.895Z,23.06
2022-08-09T23:25:11.601Z,23.44
2022-08-09T23:27:14.339Z,23.43
2022-08-09T23:29:17.087Z,23.17
2022-08-09T23:31:19.901Z,23.29
2022-08-09T23:33:23.917Z,23.46
2022-08-09T23:35:26.922Z,23.50
2022-08-09T23:37:29.748Z,23.49
2022-08-09T23:39:33.963Z,23.13
2022-08-09T23:41:37.428Z,23.25
2022-08-09T23:43:40.196Z,23.27
2022-08-09T23:45:42.956Z,22.94
2022-08-09T23:47:45.740Z,23.06
2022-08-09T23:49:48.554Z,23.23
2022-08-09T23:51:51.327Z,22.99
2022-08-09T23:54:02.631Z,23.15
2022-08-09T23:56:07.764Z,23.16
2022-08-09T23:58:27.588Z,23.25
